Time;durP1;ratioP1;P1;durP2;ratioP2;P2;SDS_P1;SDS_P2;PMS_P1;PMS_P2;Temp;Humidity;BMP_temperature;BMP_pressure;BME280_temperature;BME280_humidity;BME280_pressure;Samples;Min_cycle;Max_cycle;Signal;HPM_P1;HPM_P2
2021/12/15 00:00:59;;;;;;;18.80;7.67;;;;;;;;;;5118398;28;20214;-75
2021/12/15 00:03:24;;;;;;;20.90;7.33;;;;;;;;;;5119932;28;20283;-76
2021/12/15 00:05:50;;;;;;;27.33;7.60;;;;;;;;;;5120909;28;20210;-76
2021/12/15 00:08:16;;;;;;;17.40;7.63;;;;;;;;;;5121410;28;20240;-76
2021/12/15 00:10:42;;;;;;;20.03;7.13;;;;;;;;;;5119843;28;20223;-76
2021/12/15 00:13:08;;;;;;;36.77;7.90;;;;;;;;;;5118479;28;20212;-75
2021/12/15 00:15:33;;;;;;;20.17;6.93;;;;;;;;;;5122021;28;20255;-75
2021/12/15 00:17:59;;;;;;;41.27;8.00;;;;;;;;;;5109360;27;20198;-75
2021/12/15 00:20:24;;;;;;;28.83;7.23;;;;;;;;;;5120671;28;20192;-76
2021/12/15 00:22:52;;;;;;;17.17;6.50;;;;;;;;;;5101217;28;20179;-76
2021/12/15 00:25:18;;;;;;;14.10;7.50;;;;;;;;;;5107816;28;20251;-75
2021/12/15 00:27:43;;;;;;;20.27;8.00;;;;;;;;;;5097841;28;20187;-76
2021/12/15 00:30:09;;;;;;;15.13;6.20;;;;;;;;;;5100923;28;20206;-76
2021/12/15 00:32:35;;;;;;;23.07;6.53;;;;;;;;;;5109797;28;20183;-75
2021/12/15 00:35:00;;;;;;;17.00;5.87;;;;;;;;;;5100525;28;20254;-75
2021/12/15 00:37:26;;;;;;;13.17;6.77;;;;;;;;;;5101611;28;20177;-75
2021/12/15 00:39:51;;;;;;;12.27;7.30;;;;;;;;;;5101804;28;20253;-76
2021/12/15 00:42:16;;;;;;;18.37;7.77;;;;;;;;;;5105641;28;20208;-76
2021/12/15 00:44:42;;;;;;;13.83;6.03;;;;;;;;;;5103624;28;20180;-76
2021/12/15 00:47:08;;;;;;;12.27;6.13;;;;;;;;;;5099343;28;20180;-75
2021/12/15 00:49:34;;;;;;;13.40;6.60;;;;;;;;;;5108210;28;20464;-75
2021/12/15 00:51:59;;;;;;;16.33;6.80;;;;;;;;;;5100600;28;20244;-76
2021/12/15 00:54:25;;;;;;;13.60;6.60;;;;;;;;;;5103407;28;20185;-76
2021/12/15 00:56:51;;;;;;;14.30;5.77;;;;;;;;;;5108634;28;20225;-75
2021/12/15 00:59:16;;;;;;;10.10;6.23;;;;;;;;;;5106360;28;20184;-75
2021/12/15 01:01:41;;;;;;;4.40;2.83;;;;;;;;;;5101997;28;20188;-76
2021/12/15 01:04:08;;;;;;;10.20;5.67;;;;;;;;;;5103721;28;20268;-76
2021/12/15 01:06:34;;;;;;;9.80;5.27;;;;;;;;;;5101840;28;20273;-76
2021/12/15 01:09:02;;;;;;;14.47;6.77;;;;;;;;;;5106636;27;20176;-76
2021/12/15 01:20:00;;;;;;;11.27;5.90;;;;;;;;;;5125701;27;20195;-76
2021/12/15 01:22:31;;;;;;;9.87;5.10;;;;;;;;;;5102940;28;20184;-76
2021/12/15 01:25:03;;;;;;;5.90;4.17;;;;;;;;;;5129812;27;20182;-75
2021/12/15 01:27:28;;;;;;;6.83;3.93;;;;;;;;;;5103594;27;20182;-76
2021/12/15 01:29:54;;;;;;;5.70;3.50;;;;;;;;;;5108305;27;20196;-76
2021/12/15 01:32:19;;;;;;;3.37;2.70;;;;;;;;;;5117742;27;20172;-76
2021/12/15 01:34:44;;;;;;;7.27;4.40;;;;;;;;;;5110214;27;20184;-75
2021/12/15 01:37:12;;;;;;;7.47;5.03;;;;;;;;;;5100853;28;20176;-75
2021/12/15 01:39:37;;;;;;;9.77;5.50;;;;;;;;;;5106058;27;20183;-76
2021/12/15 01:42:03;;;;;;;6.70;3.90;;;;;;;;;;5110221;28;20206;-75
2021/12/15 01:47:01;;;;;;;6.37;3.90;;;;;;;;;;5122319;27;20205;-76
2021/12/15 01:49:29;;;;;;;6.03;4.37;;;;;;;;;;5103466;27;20199;-76
2021/12/15 01:51:55;;;;;;;4.23;3.53;;;;;;;;;;5101488;27;20183;-75
2021/12/15 01:54:21;;;;;;;6.07;4.40;;;;;;;;;;5126536;27;20179;-75
2021/12/15 01:56:47;;;;;;;7.27;4.03;;;;;;;;;;5101390;28;20172;-75
2021/12/15 01:59:13;;;;;;;6.43;4.13;;;;;;;;;;5106737;27;20208;-75
2021/12/15 02:01:38;;;;;;;4.90;3.63;;;;;;;;;;5103391;27;20211;-76
2021/12/15 02:04:04;;;;;;;7.23;4.03;;;;;;;;;;5112167;27;20209;-76
2021/12/15 02:06:29;;;;;;;4.27;3.60;;;;;;;;;;5108478;27;20175;-76
2021/12/15 02:08:54;;;;;;;5.73;4.60;;;;;;;;;;5122744;27;20180;-75
2021/12/15 02:11:20;;;;;;;5.63;4.60;;;;;;;;;;5108343;27;20445;-75
2021/12/15 02:13:45;;;;;;;6.27;4.10;;;;;;;;;;5105099;27;20195;-76
2021/12/15 02:16:11;;;;;;;7.33;5.00;;;;;;;;;;5131182;27;20171;-75
2021/12/15 02:18:37;;;;;;;6.60;4.73;;;;;;;;;;5099816;27;20171;-76
2021/12/15 02:21:07;;;;;;;9.53;6.17;;;;;;;;;;5108927;27;20183;-75
2021/12/15 02:23:39;;;;;;;8.03;5.67;;;;;;;;;;5107830;27;20175;-76
2021/12/15 02:26:08;;;;;;;10.70;6.40;;;;;;;;;;5107240;28;20194;-76
2021/12/15 02:28:34;;;;;;;13.90;6.53;;;;;;;;;;5118624;27;20171;-75
2021/12/15 02:31:34;;;;;;;16.80;7.77;;;;;;;;;;5102638;28;20210;-75
2021/12/15 02:39:10;;;;;;;15.07;5.67;;;;;;;;;;5124832;27;20228;-76
2021/12/15 02:41:37;;;;;;;12.07;6.00;;;;;;;;;;5105822;27;20179;-75
2021/12/15 02:44:04;;;;;;;8.43;5.87;;;;;;;;;;5106255;28;20196;-75
2021/12/15 02:46:31;;;;;;;10.17;5.07;;;;;;;;;;5126733;27;20176;-75
2021/12/15 02:48:56;;;;;;;15.53;6.90;;;;;;;;;;5098792;28;20172;-76
2021/12/15 02:51:22;;;;;;;12.47;6.43;;;;;;;;;;5119501;27;20176;-75
2021/12/15 02:53:48;;;;;;;12.33;5.93;;;;;;;;;;5106095;27;20187;-75
2021/12/15 02:56:14;;;;;;;11.33;5.63;;;;;;;;;;5120223;27;20550;-75
2021/12/15 02:58:48;;;;;;;12.30;6.30;;;;;;;;;;5106829;28;20197;-76
2021/12/15 03:01:20;;;;;;;13.20;6.27;;;;;;;;;;5101177;28;20176;-75
2021/12/15 03:04:09;;;;;;;10.87;6.83;;;;;;;;;;5103356;28;20184;-76
2021/12/15 03:06:44;;;;;;;13.03;7.37;;;;;;;;;;5123574;28;20184;-75
2021/12/15 03:15:30;;;;;;;17.77;7.33;;;;;;;;;;5126643;28;20185;-75
2021/12/15 03:17:19;;;;;;;20.77;8.63;;;;;;;;;;5105586;28;20260;-76
2021/12/15 03:19:44;;;;;;;38.03;8.63;;;;;;;;;;5107279;28;20180;-75
2021/12/15 03:22:09;;;;;;;18.43;7.90;;;;;;;;;;5105849;28;20271;-76
2021/12/15 03:24:34;;;;;;;21.50;7.53;;;;;;;;;;5111749;28;20179;-75
2021/12/15 03:27:08;;;;;;;32.10;8.37;;;;;;;;;;5103429;28;20180;-76
2021/12/15 03:35:20;;;;;;;21.67;9.97;;;;;;;;;;5121500;28;20171;-76
2021/12/15 03:37:48;;;;;;;20.40;7.97;;;;;;;;;;5101084;28;20182;-75
2021/12/15 03:40:17;;;;;;;35.90;8.33;;;;;;;;;;5109288;28;20184;-76
2021/12/15 03:42:44;;;;;;;18.40;8.67;;;;;;;;;;5126960;28;20202;-75
2021/12/15 03:45:14;;;;;;;21.00;8.37;;;;;;;;;;5100530;28;20184;-76
2021/12/15 03:47:41;;;;;;;20.87;8.73;;;;;;;;;;5109906;28;20172;-75
2021/12/15 03:50:08;;;;;;;19.40;8.17;;;;;;;;;;5104469;28;20196;-75
2021/12/15 03:52:34;;;;;;;17.17;7.63;;;;;;;;;;5102741;28;20176;-76
2021/12/15 03:54:59;;;;;;;14.03;7.03;;;;;;;;;;5123959;28;20183;-75
2021/12/15 03:57:25;;;;;;;15.27;8.30;;;;;;;;;;5103487;27;20186;-76
2021/12/15 03:59:50;;;;;;;13.30;7.63;;;;;;;;;;5105397;27;20338;-76
2021/12/15 04:02:17;;;;;;;26.20;7.80;;;;;;;;;;5129072;27;20477;-76
2021/12/15 04:04:44;;;;;;;34.27;8.67;;;;;;;;;;5105408;27;20180;-76
2021/12/15 04:07:10;;;;;;;40.97;9.13;;;;;;;;;;5105252;27;20214;-76
2021/12/15 04:09:36;;;;;;;58.53;9.97;;;;;;;;;;5129133;27;20230;-76
2021/12/15 04:12:01;;;;;;;48.30;10.57;;;;;;;;;;5121130;27;20233;-76
2021/12/15 04:14:34;;;;;;;26.30;8.40;;;;;;;;;;5108597;27;20561;-75
2021/12/15 04:17:02;;;;;;;42.70;10.10;;;;;;;;;;5129103;27;20177;-76
2021/12/15 04:19:28;;;;;;;47.63;10.20;;;;;;;;;;5123948;27;20176;-76
2021/12/15 04:21:53;;;;;;;46.17;9.70;;;;;;;;;;5120769;27;20176;-76
2021/12/15 04:24:19;;;;;;;23.17;8.60;;;;;;;;;;5126780;27;20183;-76
2021/12/15 04:26:46;;;;;;;62.70;9.30;;;;;;;;;;5100022;27;20282;-75
2021/12/15 04:29:12;;;;;;;48.50;10.47;;;;;;;;;;5109323;27;20203;-76
2021/12/15 04:31:39;;;;;;;51.97;9.63;;;;;;;;;;5118651;27;20205;-76
2021/12/15 04:34:05;;;;;;;63.23;10.70;;;;;;;;;;5119472;27;20191;-75
2021/12/15 04:36:33;;;;;;;44.80;10.63;;;;;;;;;;5105393;27;20179;-76
2021/12/15 04:38:59;;;;;;;56.97;10.63;;;;;;;;;;5111866;27;20172;-75
2021/12/15 04:41:26;;;;;;;30.57;9.33;;;;;;;;;;5121004;27;20439;-76
2021/12/15 04:44:00;;;;;;;55.90;10.43;;;;;;;;;;5127926;27;20203;-76
2021/12/15 04:46:30;;;;;;;42.10;11.27;;;;;;;;;;5109533;27;20176;-75
2021/12/15 04:48:55;;;;;;;36.07;11.13;;;;;;;;;;5110565;27;20198;-76
2021/12/15 04:51:21;;;;;;;71.23;12.80;;;;;;;;;;5106925;28;20287;-76
2021/12/15 04:53:47;;;;;;;102.27;12.87;;;;;;;;;;5104835;27;20228;-75
2021/12/15 04:56:12;;;;;;;98.43;13.57;;;;;;;;;;5110962;27;20180;-76
2021/12/15 04:58:37;;;;;;;74.43;11.17;;;;;;;;;;5111421;27;20174;-76
2021/12/15 05:01:05;;;;;;;51.83;12.50;;;;;;;;;;5122132;27;20259;-76
2021/12/15 05:03:30;;;;;;;87.13;12.63;;;;;;;;;;5131019;27;20231;-75
2021/12/15 05:05:55;;;;;;;50.70;11.37;;;;;;;;;;5102184;27;20262;-76
2021/12/15 05:08:20;;;;;;;49.90;12.97;;;;;;;;;;5124752;27;20171;-76
2021/12/15 05:10:46;;;;;;;39.07;8.80;;;;;;;;;;5101225;28;20224;-76
2021/12/15 05:13:12;;;;;;;54.80;10.50;;;;;;;;;;5110298;28;20222;-76
2021/12/15 05:15:37;;;;;;;57.57;11.27;;;;;;;;;;5102684;28;20180;-76
2021/12/15 05:18:05;;;;;;;48.50;10.37;;;;;;;;;;5101155;28;20173;-76
2021/12/15 05:20:34;;;;;;;37.63;10.20;;;;;;;;;;5102977;28;21061;-75
2021/12/15 05:23:01;;;;;;;61.90;12.20;;;;;;;;;;5096239;28;20176;-75
2021/12/15 05:25:27;;;;;;;58.90;11.70;;;;;;;;;;5102978;28;20183;-75
2021/12/15 05:27:52;;;;;;;80.60;11.40;;;;;;;;;;5103353;28;20195;-76
2021/12/15 05:30:18;;;;;;;104.53;14.70;;;;;;;;;;5107350;28;20196;-76
2021/12/15 05:32:43;;;;;;;85.83;12.30;;;;;;;;;;5103133;28;20179;-76
2021/12/15 05:35:14;;;;;;;68.30;11.00;;;;;;;;;;5109041;28;20271;-76
2021/12/15 05:37:40;;;;;;;47.17;10.77;;;;;;;;;;5105085;28;20173;-76
2021/12/15 05:40:05;;;;;;;41.93;9.83;;;;;;;;;;5106224;27;20268;-75
2021/12/15 05:42:31;;;;;;;55.73;10.73;;;;;;;;;;5106370;28;20200;-76
2021/12/15 05:44:56;;;;;;;57.80;11.40;;;;;;;;;;5105866;28;20180;-76
2021/12/15 05:47:22;;;;;;;46.70;10.23;;;;;;;;;;5106283;28;20232;-76
2021/12/15 05:49:48;;;;;;;84.27;12.10;;;;;;;;;;5105155;28;20283;-76
2021/12/15 05:52:14;;;;;;;42.20;11.67;;;;;;;;;;5107290;28;20290;-76
2021/12/15 05:54:39;;;;;;;48.27;10.37;;;;;;;;;;5105514;28;20363;-76
2021/12/15 05:57:05;;;;;;;46.93;9.63;;;;;;;;;;5100709;28;20191;-76
2021/12/15 05:59:30;;;;;;;41.77;10.23;;;;;;;;;;5104625;28;20175;-76
2021/12/15 06:01:55;;;;;;;33.00;9.10;;;;;;;;;;5107078;28;21699;-75
2021/12/15 06:04:21;;;;;;;38.83;9.20;;;;;;;;;;5104996;28;20437;-76
2021/12/15 06:06:46;;;;;;;51.30;11.50;;;;;;;;;;5106260;28;20218;-76
2021/12/15 06:09:12;;;;;;;37.70;10.30;;;;;;;;;;5106307;27;20267;-77
2021/12/15 06:11:38;;;;;;;38.70;10.73;;;;;;;;;;5109116;27;20179;-78
2021/12/15 06:14:04;;;;;;;37.20;10.60;;;;;;;;;;5104800;27;20401;-77
2021/12/15 06:16:29;;;;;;;66.93;12.20;;;;;;;;;;5102499;27;20624;-77
2021/12/15 06:18:54;;;;;;;48.73;11.00;;;;;;;;;;5107658;27;20187;-77
2021/12/15 06:21:20;;;;;;;50.03;11.37;;;;;;;;;;5106083;27;20282;-77
2021/12/15 06:23:47;;;;;;;82.93;12.17;;;;;;;;;;5109247;27;20175;-77
2021/12/15 06:26:12;;;;;;;38.33;12.37;;;;;;;;;;5103014;27;20232;-78
2021/12/15 06:28:38;;;;;;;79.60;13.17;;;;;;;;;;5101050;27;20188;-78
2021/12/15 06:31:06;;;;;;;59.43;11.77;;;;;;;;;;5126281;27;20268;-77
2021/12/15 06:33:32;;;;;;;117.37;13.20;;;;;;;;;;5120128;27;20175;-77
2021/12/15 06:35:57;;;;;;;86.57;11.47;;;;;;;;;;5108610;27;20270;-78
2021/12/15 06:38:24;;;;;;;60.40;12.07;;;;;;;;;;5105295;27;20224;-77
2021/12/15 06:40:49;;;;;;;96.77;13.17;;;;;;;;;;5102328;27;20184;-78
2021/12/15 06:43:15;;;;;;;142.47;14.23;;;;;;;;;;5101363;27;20204;-77
2021/12/15 06:45:55;;;;;;;80.93;12.97;;;;;;;;;;5105250;27;20187;-77
2021/12/15 06:59:16;;;;;;;75.43;13.37;;;;;;;;;;5122603;27;20179;-77
2021/12/15 07:01:41;;;;;;;93.80;14.07;;;;;;;;;;5107304;28;20179;-77
2021/12/15 07:04:07;;;;;;;87.40;13.33;;;;;;;;;;5100177;28;20179;-77
2021/12/15 07:06:32;;;;;;;117.47;15.10;;;;;;;;;;5111928;28;20267;-77
2021/12/15 07:08:57;;;;;;;49.50;11.27;;;;;;;;;;5108154;28;20186;-77
2021/12/15 07:11:23;;;;;;;101.60;15.20;;;;;;;;;;5110436;28;20210;-77
2021/12/15 07:13:48;;;;;;;70.70;13.63;;;;;;;;;;5106496;28;20236;-78
2021/12/15 07:16:14;;;;;;;52.67;13.43;;;;;;;;;;5109303;28;20183;-77
2021/12/15 07:19:32;;;;;;;108.87;19.43;;;;;;;;;;5106309;28;20203;-77
2021/12/15 07:21:34;;;;;;;109.50;16.10;;;;;;;;;;5112279;28;20188;-77
2021/12/15 07:23:59;;;;;;;42.70;16.70;;;;;;;;;;5103884;28;20205;-77
2021/12/15 07:26:25;;;;;;;70.40;15.60;;;;;;;;;;5105099;28;20172;-77
2021/12/15 07:28:50;;;;;;;51.67;13.57;;;;;;;;;;5104368;28;20202;-77
2021/12/15 07:31:16;;;;;;;36.87;12.90;;;;;;;;;;5104629;27;20228;-79
2021/12/15 07:33:41;;;;;;;66.97;15.67;;;;;;;;;;5109667;27;20184;-78
2021/12/15 07:36:10;;;;;;;41.80;15.87;;;;;;;;;;5106247;27;20173;-78
2021/12/15 07:38:41;;;;;;;45.23;23.80;;;;;;;;;;5115579;27;20175;-78
2021/12/15 07:41:07;;;;;;;46.30;18.17;;;;;;;;;;5105976;27;20191;-78
2021/12/15 07:43:32;;;;;;;42.87;15.33;;;;;;;;;;5113545;27;20188;-78
2021/12/15 07:46:02;;;;;;;45.60;14.63;;;;;;;;;;5110566;27;20184;-79
2021/12/15 07:48:29;;;;;;;60.77;14.97;;;;;;;;;;5106691;28;20225;-79
2021/12/15 07:50:56;;;;;;;60.80;16.13;;;;;;;;;;5104345;27;20200;-78
2021/12/15 07:53:22;;;;;;;69.87;15.37;;;;;;;;;;5109883;28;20176;-78
2021/12/15 07:55:48;;;;;;;51.20;14.03;;;;;;;;;;5115317;27;20178;-78
2021/12/15 07:58:13;;;;;;;38.93;15.27;;;;;;;;;;5110087;28;20172;-78
2021/12/15 08:00:39;;;;;;;28.77;13.13;;;;;;;;;;5107640;27;20252;-78
2021/12/15 08:03:05;;;;;;;35.63;13.77;;;;;;;;;;5111339;27;20191;-78
2021/12/15 08:05:30;;;;;;;32.80;13.30;;;;;;;;;;5108703;27;20168;-78
2021/12/15 08:07:56;;;;;;;46.80;14.57;;;;;;;;;;5107196;27;20187;-78
2021/12/15 08:10:21;;;;;;;67.33;15.37;;;;;;;;;;5110201;28;20224;-78
2021/12/15 08:12:47;;;;;;;95.33;14.77;;;;;;;;;;5107865;28;20164;-78
2021/12/15 08:15:13;;;;;;;53.67;13.77;;;;;;;;;;5106243;28;20173;-78
2021/12/15 08:17:40;;;;;;;32.57;11.87;;;;;;;;;;5108969;28;20184;-78
2021/12/15 08:20:06;;;;;;;66.07;13.70;;;;;;;;;;5103827;28;20188;-78
2021/12/15 08:22:31;;;;;;;33.40;12.97;;;;;;;;;;5106978;28;20184;-77
2021/12/15 08:24:57;;;;;;;21.90;11.63;;;;;;;;;;5101177;28;20172;-78
2021/12/15 08:27:22;;;;;;;33.80;14.43;;;;;;;;;;5106760;28;20183;-78
2021/12/15 08:29:47;;;;;;;39.40;13.93;;;;;;;;;;5105695;28;20227;-78
2021/12/15 08:32:12;;;;;;;24.03;12.37;;;;;;;;;;5102347;28;20176;-78
2021/12/15 08:34:38;;;;;;;22.20;11.43;;;;;;;;;;5108143;28;20176;-78
2021/12/15 08:37:03;;;;;;;24.23;12.67;;;;;;;;;;5109312;28;20180;-78
2021/12/15 08:39:28;;;;;;;23.10;12.30;;;;;;;;;;5109959;28;20180;-78
2021/12/15 08:41:54;;;;;;;33.57;13.70;;;;;;;;;;5102146;28;20217;-78
2021/12/15 08:44:19;;;;;;;40.50;13.90;;;;;;;;;;5107712;28;20220;-78
2021/12/15 08:46:45;;;;;;;28.43;12.70;;;;;;;;;;5102947;28;20271;-78
2021/12/15 08:49:13;;;;;;;24.63;12.37;;;;;;;;;;5107685;28;20176;-78
2021/12/15 08:51:38;;;;;;;27.80;12.93;;;;;;;;;;5105824;28;20183;-78
2021/12/15 08:54:05;;;;;;;31.93;13.23;;;;;;;;;;5096626;28;20165;-78
2021/12/15 08:56:31;;;;;;;33.20;13.43;;;;;;;;;;5105786;28;20173;-78
2021/12/15 08:58:57;;;;;;;34.50;12.60;;;;;;;;;;5100445;28;20172;-78
2021/12/15 09:01:23;;;;;;;26.63;11.27;;;;;;;;;;5097883;28;20263;-78
2021/12/15 09:03:48;;;;;;;32.57;12.47;;;;;;;;;;5101434;28;20172;-78
2021/12/15 09:06:15;;;;;;;36.23;13.17;;;;;;;;;;5106693;28;20180;-78
2021/12/15 09:08:42;;;;;;;31.07;11.37;;;;;;;;;;5103136;28;20196;-77
2021/12/15 09:11:08;;;;;;;31.87;14.07;;;;;;;;;;5094427;28;20240;-78
2021/12/15 09:13:34;;;;;;;31.47;14.03;;;;;;;;;;5109589;28;20168;-78
2021/12/15 09:16:02;;;;;;;28.60;14.23;;;;;;;;;;5107124;28;20204;-78
2021/12/15 09:18:27;;;;;;;23.80;11.50;;;;;;;;;;5103644;28;20176;-79
2021/12/15 09:20:52;;;;;;;28.00;11.30;;;;;;;;;;5106905;28;20172;-78
2021/12/15 09:23:18;;;;;;;23.60;12.60;;;;;;;;;;5101218;28;20180;-78
2021/12/15 09:25:44;;;;;;;21.57;12.53;;;;;;;;;;5108217;28;20182;-78
2021/12/15 09:28:09;;;;;;;21.10;12.50;;;;;;;;;;5101970;28;20184;-78
2021/12/15 09:30:35;;;;;;;24.40;11.83;;;;;;;;;;5108366;28;20230;-78
2021/12/15 09:33:01;;;;;;;20.87;11.30;;;;;;;;;;5105110;28;20221;-79
2021/12/15 09:35:28;;;;;;;19.43;11.73;;;;;;;;;;5102061;28;20226;-78
2021/12/15 09:37:54;;;;;;;16.83;10.57;;;;;;;;;;5103226;28;20184;-78
2021/12/15 09:40:19;;;;;;;15.70;10.43;;;;;;;;;;5098887;28;20242;-79
2021/12/15 09:42:45;;;;;;;20.30;10.60;;;;;;;;;;5105717;28;20225;-78
2021/12/15 09:45:41;;;;;;;21.37;11.67;;;;;;;;;;5099473;28;20200;-79
2021/12/15 10:12:33;;;;;;;20.30;11.43;;;;;;;;;;5120102;27;20183;-78
2021/12/15 10:17:55;;;;;;;24.23;14.37;;;;;;;;;;5123704;27;20253;-78
2021/12/15 10:20:23;;;;;;;34.20;16.00;;;;;;;;;;5099987;28;20184;-79
2021/12/15 10:22:51;;;;;;;75.10;30.43;;;;;;;;;;5106009;27;20183;-78
2021/12/15 10:25:33;;;;;;;29.30;17.30;;;;;;;;;;5100933;28;20177;-78
2021/12/15 10:28:03;;;;;;;44.70;24.17;;;;;;;;;;5102186;28;20181;-77
2021/12/15 10:30:31;;;;;;;43.90;22.30;;;;;;;;;;5098539;28;20202;-78
2021/12/15 10:32:56;;;;;;;50.90;27.70;;;;;;;;;;5099292;27;20198;-78
2021/12/15 10:35:27;;;;;;;29.10;18.10;;;;;;;;;;5100868;27;20183;-78
2021/12/15 10:38:10;;;;;;;27.40;16.20;;;;;;;;;;5105879;27;20174;-78
2021/12/15 10:40:44;;;;;;;29.50;14.47;;;;;;;;;;5105436;27;20278;-78
2021/12/15 10:43:10;;;;;;;25.93;14.20;;;;;;;;;;5099891;28;20208;-78
2021/12/15 10:45:48;;;;;;;27.27;14.97;;;;;;;;;;5097491;27;20173;-78
2021/12/15 10:48:24;;;;;;;32.67;15.73;;;;;;;;;;5122795;27;20179;-78
2021/12/15 10:50:49;;;;;;;22.93;13.73;;;;;;;;;;5097126;28;20207;-78
2021/12/15 10:53:28;;;;;;;29.03;15.27;;;;;;;;;;5106639;28;20180;-78
2021/12/15 10:55:53;;;;;;;24.77;14.10;;;;;;;;;;5103413;27;20176;-78
2021/12/15 10:58:35;;;;;;;31.53;14.27;;;;;;;;;;5106297;28;20179;-79
2021/12/15 11:01:02;;;;;;;64.30;14.77;;;;;;;;;;5103081;27;20171;-78
2021/12/15 11:03:32;;;;;;;91.37;16.97;;;;;;;;;;5107781;27;20267;-78
2021/12/15 11:05:57;;;;;;;53.07;17.17;;;;;;;;;;5100573;28;20278;-79
2021/12/15 11:08:23;;;;;;;29.27;14.83;;;;;;;;;;5124971;28;20175;-78
2021/12/15 11:10:53;;;;;;;26.73;15.07;;;;;;;;;;5102418;28;20225;-78
2021/12/15 11:13:19;;;;;;;25.57;13.83;;;;;;;;;;5110524;28;20192;-78
2021/12/15 11:15:46;;;;;;;32.23;15.73;;;;;;;;;;5103661;28;20167;-78
2021/12/15 11:18:25;;;;;;;27.50;14.53;;;;;;;;;;5101393;28;20245;-78
2021/12/15 11:21:01;;;;;;;25.53;14.80;;;;;;;;;;5095585;28;20179;-78
2021/12/15 11:23:27;;;;;;;24.53;12.83;;;;;;;;;;5100297;28;20262;-78
2021/12/15 11:25:56;;;;;;;25.60;14.47;;;;;;;;;;5099776;28;20183;-78
2021/12/15 11:28:51;;;;;;;27.10;15.00;;;;;;;;;;5117421;28;20239;-78
2021/12/15 11:31:21;;;;;;;26.47;13.73;;;;;;;;;;5089800;28;20239;-78
2021/12/15 11:33:47;;;;;;;30.40;14.93;;;;;;;;;;5103655;28;20202;-78
2021/12/15 11:36:16;;;;;;;21.37;14.60;;;;;;;;;;5098065;28;20183;-78
2021/12/15 11:38:43;;;;;;;19.00;11.13;;;;;;;;;;5104787;28;20190;-78
2021/12/15 11:41:11;;;;;;;17.07;11.67;;;;;;;;;;5116890;28;20257;-79
2021/12/15 11:43:36;;;;;;;23.20;14.17;;;;;;;;;;5100008;28;20196;-78
2021/12/15 11:46:04;;;;;;;21.47;13.03;;;;;;;;;;5102103;28;20165;-78
2021/12/15 11:48:32;;;;;;;23.23;14.23;;;;;;;;;;5129973;28;20180;-78
2021/12/15 11:50:59;;;;;;;16.30;10.97;;;;;;;;;;5098558;28;20196;-78
2021/12/15 11:53:39;;;;;;;37.27;12.37;;;;;;;;;;5107187;28;20179;-78
2021/12/15 11:56:16;;;;;;;20.47;12.60;;;;;;;;;;5110132;28;20183;-78
2021/12/15 11:58:42;;;;;;;17.77;10.50;;;;;;;;;;5099265;28;20175;-78
2021/12/15 12:01:08;;;;;;;15.63;11.07;;;;;;;;;;5105046;28;20176;-78
2021/12/15 12:03:34;;;;;;;15.50;10.80;;;;;;;;;;5101478;28;20211;-78
2021/12/15 12:06:01;;;;;;;20.03;10.87;;;;;;;;;;5108379;28;20233;-78
2021/12/15 12:08:27;;;;;;;14.53;11.23;;;;;;;;;;5103093;28;20206;-78
2021/12/15 12:10:52;;;;;;;21.30;16.50;;;;;;;;;;5101075;28;20228;-78
2021/12/15 12:13:27;;;;;;;15.57;10.57;;;;;;;;;;5103849;28;20272;-78
2021/12/15 12:15:58;;;;;;;24.70;16.93;;;;;;;;;;5094631;28;20187;-78
2021/12/15 12:18:25;;;;;;;18.53;11.70;;;;;;;;;;5103014;28;20169;-78
2021/12/15 12:20:53;;;;;;;19.87;10.63;;;;;;;;;;5099343;28;20176;-78
2021/12/15 12:23:20;;;;;;;17.73;11.63;;;;;;;;;;5103534;28;20234;-78
2021/12/15 12:25:47;;;;;;;20.57;10.57;;;;;;;;;;5101849;28;20176;-79
2021/12/15 12:28:17;;;;;;;24.57;14.33;;;;;;;;;;5105039;28;20189;-78
2021/12/15 12:30:44;;;;;;;21.20;11.50;;;;;;;;;;5102171;28;20194;-78
2021/12/15 12:33:10;;;;;;;19.97;12.77;;;;;;;;;;5102342;28;20187;-79
2021/12/15 12:35:41;;;;;;;21.23;13.37;;;;;;;;;;5102887;28;20180;-78
2021/12/15 12:38:12;;;;;;;31.40;15.63;;;;;;;;;;5103263;28;20184;-78
2021/12/15 12:41:07;;;;;;;21.37;15.43;;;;;;;;;;5100836;28;20202;-78
2021/12/15 12:43:41;;;;;;;32.80;19.80;;;;;;;;;;5087848;28;20212;-78
2021/12/15 12:46:15;;;;;;;31.33;22.03;;;;;;;;;;5106901;28;20187;-78
2021/12/15 12:48:53;;;;;;;20.57;15.87;;;;;;;;;;5106597;28;20176;-78
2021/12/15 12:59:47;;;;;;;13.23;9.73;;;;;;;;;;5105775;28;20208;-78
2021/12/15 13:02:33;;;;;;;20.00;10.70;;;;;;;;;;5102607;28;20180;-78
2021/12/15 13:04:59;;;;;;;10.87;9.13;;;;;;;;;;5101674;28;20174;-78
2021/12/15 13:07:43;;;;;;;12.23;9.20;;;;;;;;;;5101434;28;20180;-78
2021/12/15 13:10:08;;;;;;;12.60;9.57;;;;;;;;;;5111653;28;20232;-78
2021/12/15 13:12:39;;;;;;;15.80;9.63;;;;;;;;;;5104655;28;20164;-78
2021/12/15 13:15:07;;;;;;;12.37;9.77;;;;;;;;;;5104296;28;20172;-78
2021/12/15 13:17:36;;;;;;;11.07;8.47;;;;;;;;;;5110070;28;20173;-78
2021/12/15 13:20:03;;;;;;;12.23;9.60;;;;;;;;;;5102844;28;20178;-78
2021/12/15 13:22:42;;;;;;;16.50;10.80;;;;;;;;;;5102188;28;20259;-78
2021/12/15 13:30:55;;;;;;;12.67;9.70;;;;;;;;;;5100372;28;20294;-78
2021/12/15 13:33:29;;;;;;;14.43;11.00;;;;;;;;;;5101408;28;20184;-77
2021/12/15 13:35:56;;;;;;;15.10;11.57;;;;;;;;;;5099939;28;20271;-78
2021/12/15 13:38:33;;;;;;;15.33;10.23;;;;;;;;;;5103765;28;20168;-78
2021/12/15 13:41:05;;;;;;;10.63;9.30;;;;;;;;;;5096413;28;20176;-78
2021/12/15 13:43:39;;;;;;;27.30;9.63;;;;;;;;;;5098400;28;20197;-78
2021/12/15 13:46:05;;;;;;;11.10;8.53;;;;;;;;;;5102229;28;20177;-78
2021/12/15 13:48:49;;;;;;;9.57;8.10;;;;;;;;;;5098684;28;20181;-78
2021/12/15 13:51:14;;;;;;;27.10;15.50;;;;;;;;;;5102988;28;20204;-78
2021/12/15 13:53:39;;;;;;;18.23;13.23;;;;;;;;;;5098618;28;20202;-78
2021/12/15 13:56:05;;;;;;;25.40;14.87;;;;;;;;;;5105732;28;20206;-78
2021/12/15 13:58:31;;;;;;;18.93;11.43;;;;;;;;;;5101151;28;20176;-78
2021/12/15 14:00:58;;;;;;;29.03;18.60;;;;;;;;;;5098857;28;20177;-78
2021/12/15 14:03:32;;;;;;;15.40;10.03;;;;;;;;;;5101026;28;20180;-78
2021/12/15 14:06:05;;;;;;;13.60;8.60;;;;;;;;;;5106151;28;20169;-78
2021/12/15 14:08:38;;;;;;;19.53;9.80;;;;;;;;;;5108433;28;20184;-78
2021/12/15 14:11:07;;;;;;;14.23;8.80;;;;;;;;;;5112389;27;20232;-78
2021/12/15 14:13:37;;;;;;;20.57;9.63;;;;;;;;;;5107062;28;20197;-78
2021/12/15 14:16:03;;;;;;;14.33;8.57;;;;;;;;;;5104775;28;20169;-78
2021/12/15 14:18:30;;;;;;;15.47;8.60;;;;;;;;;;5099069;28;20187;-78
2021/12/15 14:20:58;;;;;;;21.00;9.00;;;;;;;;;;5098338;28;20184;-78
2021/12/15 14:23:29;;;;;;;17.73;9.67;;;;;;;;;;5095150;28;20191;-78
2021/12/15 14:25:55;;;;;;;33.10;11.57;;;;;;;;;;5099191;28;20176;-78
2021/12/15 14:28:28;;;;;;;32.23;11.57;;;;;;;;;;5099007;28;20172;-78
2021/12/15 14:31:02;;;;;;;19.93;8.93;;;;;;;;;;5103161;28;20197;-78
2021/12/15 14:33:32;;;;;;;16.00;9.10;;;;;;;;;;5108972;27;20259;-78
2021/12/15 14:35:59;;;;;;;19.97;9.47;;;;;;;;;;5103675;28;20175;-80
2021/12/15 14:38:31;;;;;;;48.83;9.47;;;;;;;;;;5104890;28;20174;-75
2021/12/15 14:40:57;;;;;;;10.97;7.87;;;;;;;;;;5102842;28;20234;-75
2021/12/15 14:43:22;;;;;;;13.43;11.17;;;;;;;;;;5102251;28;20203;-75
2021/12/15 14:45:47;;;;;;;15.17;9.73;;;;;;;;;;5105655;28;20176;-75
2021/12/15 14:48:16;;;;;;;16.13;9.93;;;;;;;;;;5099854;28;20181;-75
2021/12/15 14:50:42;;;;;;;18.23;10.30;;;;;;;;;;5100896;28;20218;-75
2021/12/15 14:53:08;;;;;;;13.60;9.47;;;;;;;;;;5105463;28;20184;-75
2021/12/15 14:55:33;;;;;;;21.23;9.40;;;;;;;;;;5109854;28;20181;-75
2021/12/15 14:57:58;;;;;;;14.07;9.63;;;;;;;;;;5106656;28;20179;-75
2021/12/15 15:00:28;;;;;;;11.57;8.40;;;;;;;;;;5103161;28;20276;-75
2021/12/15 15:02:56;;;;;;;13.03;8.60;;;;;;;;;;5107560;28;20238;-75
2021/12/15 15:05:25;;;;;;;13.37;8.30;;;;;;;;;;5101452;28;20294;-75
2021/12/15 15:07:52;;;;;;;16.53;8.53;;;;;;;;;;5105753;28;20182;-75
2021/12/15 15:10:19;;;;;;;18.23;9.23;;;;;;;;;;5105622;28;20254;-75
2021/12/15 15:12:45;;;;;;;13.13;8.80;;;;;;;;;;5108015;28;20172;-75
2021/12/15 15:15:18;;;;;;;12.90;8.97;;;;;;;;;;5104761;28;20185;-75
2021/12/15 15:18:01;;;;;;;22.73;9.73;;;;;;;;;;5096682;28;20178;-75
2021/12/15 15:20:26;;;;;;;18.47;9.87;;;;;;;;;;5105584;28;20183;-75
2021/12/15 15:22:54;;;;;;;20.20;10.27;;;;;;;;;;5101631;28;20173;-75
2021/12/15 15:25:22;;;;;;;27.67;9.17;;;;;;;;;;5100963;28;20206;-75
2021/12/15 15:27:53;;;;;;;14.13;8.93;;;;;;;;;;5100407;28;20189;-75
2021/12/15 15:30:20;;;;;;;20.30;9.03;;;;;;;;;;5105459;28;20222;-75
2021/12/15 15:32:50;;;;;;;26.90;10.57;;;;;;;;;;5103680;28;20177;-75
2021/12/15 15:35:24;;;;;;;21.93;8.37;;;;;;;;;;5119135;28;20179;-75
2021/12/15 15:37:50;;;;;;;24.13;9.53;;;;;;;;;;5099841;28;20231;-75
2021/12/15 15:40:19;;;;;;;19.30;8.47;;;;;;;;;;5104132;28;20296;-75
2021/12/15 15:42:45;;;;;;;15.63;10.37;;;;;;;;;;5105749;28;20286;-75
2021/12/15 15:45:40;;;;;;;20.60;8.50;;;;;;;;;;5099374;28;20193;-75
2021/12/15 15:48:06;;;;;;;42.83;8.70;;;;;;;;;;5088560;28;20192;-75